Time;durP1;ratioP1;P1;durP2;ratioP2;P2;SDS_P1;SDS_P2;PMS_P1;PMS_P2;Temp;Humidity;BMP_temperature;BMP_pressure;BME280_temperature;BME280_humidity;BME280_pressure;Samples;Min_cycle;Max_cycle;Signal;HPM_P1;HPM_P2
2023/08/21 00:03:16;;;;;;;0.00;0.00;;;;;;;-145.06;100.00;39874.84;10317295;28;20050;-64
2023/08/21 00:08:17;;;;;;;0.10;0.10;;;;;;;-145.06;100.00;39891.00;10311572;28;20033;-64
2023/08/21 00:13:18;;;;;;;0.10;0.10;;;;;;;-145.06;100.00;39901.06;10315387;28;20019;-64
2023/08/21 00:18:19;;;;;;;0.00;0.00;;;;;;;-145.06;100.00;39897.03;10315722;28;20527;-64
2023/08/21 00:23:19;;;;;;;0.10;0.10;;;;;;;-145.06;100.00;39878.88;10316352;28;20019;-64
2023/08/21 00:28:19;;;;;;;0.10;0.10;;;;;;;-145.06;100.00;39915.19;10316547;28;20027;-64
2023/08/21 00:33:20;;;;;;;0.00;0.00;;;;;;;-145.06;100.00;39927.31;10315465;28;20014;-64
2023/08/21 00:38:21;;;;;;;0.00;0.00;;;;;;;-145.06;100.00;39941.44;10314671;28;20019;-64
2023/08/21 00:43:21;;;;;;;0.10;0.10;;;;;;;-145.06;100.00;39858.69;10323049;28;20030;-63
2023/08/21 00:48:21;;;;;;;0.00;0.00;;;;;;;-145.06;100.00;39891.00;10324128;28;20488;-63
2023/08/21 00:53:22;;;;;;;0.10;0.10;;;;;;;-145.06;100.00;39903.09;10324735;28;21048;-63
2023/08/21 00:58:22;;;;;;;0.10;0.10;;;;;;;-145.06;100.00;39911.16;10323757;28;20300;-63
2023/08/21 01:03:24;;;;;;;0.00;0.00;;;;;;;-145.06;100.00;39935.38;10324463;28;20035;-64
2023/08/21 01:08:40;;;;;;;0.10;0.10;;;;;;;-145.06;100.00;39921.25;10321821;28;20522;-64
2023/08/21 01:13:54;;;;;;;0.10;0.10;;;;;;;-145.06;100.00;39935.38;10325057;28;20058;-64
2023/08/21 01:18:54;;;;;;;0.10;0.10;;;;;;;-145.06;100.00;39905.13;10323944;28;20073;-64
2023/08/21 01:23:55;;;;;;;0.10;0.10;;;;;;;-145.06;100.00;39967.66;10322208;28;20085;-64
2023/08/21 01:28:55;;;;;;;0.00;0.00;;;;;;;-145.06;100.00;39965.66;10324231;28;20048;-64
2023/08/21 01:34:04;;;;;;;0.10;0.10;;;;;;;-145.06;100.00;39923.28;10325849;28;20097;-64
2023/08/21 01:39:04;;;;;;;0.10;0.10;;;;;;;-145.06;100.00;39919.25;10323634;28;20030;-63
2023/08/21 01:44:05;;;;;;;0.10;0.10;;;;;;;-145.06;100.00;39941.44;10326943;28;20041;-64
2023/08/21 01:49:05;;;;;;;0.00;0.00;;;;;;;-145.06;100.00;39923.28;10325357;28;20019;-64
2023/08/21 01:54:05;;;;;;;0.10;0.10;;;;;;;-145.06;100.00;39937.41;10324538;28;20014;-63
2023/08/21 01:59:06;;;;;;;0.10;0.10;;;;;;;-145.06;100.00;39941.44;10327748;28;20022;-64
2023/08/21 02:04:07;;;;;;;0.10;0.10;;;;;;;-145.06;100.00;39927.31;10328978;28;20380;-64
2023/08/21 02:09:07;;;;;;;0.10;0.10;;;;;;;-145.06;100.00;39949.50;10329486;28;20026;-64
2023/08/21 02:14:07;;;;;;;0.10;0.10;;;;;;;-145.06;100.00;39931.34;10330474;28;20029;-64
2023/08/21 02:19:07;;;;;;;0.10;0.10;;;;;;;-145.06;100.00;39943.44;10328385;28;20074;-64
2023/08/21 02:24:08;;;;;;;0.00;0.00;;;;;;;-145.06;100.00;39903.09;10328990;28;20015;-64
2023/08/21 02:29:08;;;;;;;0.10;0.10;;;;;;;-145.06;100.00;39854.66;10328082;28;20030;-64
2023/08/21 02:34:08;;;;;;;0.10;0.10;;;;;;;-145.06;100.00;39812.28;10327103;28;20018;-63
2023/08/21 02:39:09;;;;;;;0.10;0.10;;;;;;;-145.06;100.00;39788.06;10326506;28;20332;-63
2023/08/21 02:44:09;;;;;;;0.10;0.10;;;;;;;-145.06;100.00;39804.22;10326698;28;20034;-64
2023/08/21 02:49:09;;;;;;;0.10;0.10;;;;;;;-145.06;100.00;39786.06;10326312;28;20086;-63
2023/08/21 02:54:10;;;;;;;0.10;0.10;;;;;;;-145.06;100.00;39790.09;10327540;28;20014;-64
2023/08/21 02:59:10;;;;;;;0.10;0.10;;;;;;;-145.06;100.00;39773.94;10326554;28;20516;-64
2023/08/21 03:04:11;;;;;;;0.10;0.10;;;;;;;-145.06;100.00;39806.22;10322539;28;20022;-64
2023/08/21 03:09:11;;;;;;;0.10;0.10;;;;;;;-145.06;100.00;39804.22;10321076;28;20033;-64
2023/08/21 03:14:11;;;;;;;0.10;0.10;;;;;;;-145.06;100.00;39775.97;10403186;22;20108;-72
2023/08/21 03:19:11;;;;;;;0.10;0.10;;;;;;;-145.06;100.00;39771.94;10421268;28;20244;-72
2023/08/21 03:24:12;;;;;;;0.00;0.00;;;;;;;-145.06;100.00;39769.91;10371678;28;20026;-72
2023/08/21 03:29:12;;;;;;;0.00;0.00;;;;;;;-145.06;100.00;39757.81;10371007;28;20382;-72
2023/08/21 03:34:12;;;;;;;0.10;0.10;;;;;;;-145.06;100.00;39782.00;10382397;28;20289;-72
2023/08/21 03:39:13;;;;;;;0.10;0.10;;;;;;;-145.06;100.00;39761.84;10388500;28;20021;-72
2023/08/21 03:44:13;;;;;;;0.00;0.00;;;;;;;-145.06;100.00;39759.81;10374036;28;20026;-72
2023/08/21 03:49:14;;;;;;;0.10;0.10;;;;;;;-145.06;100.00;39769.91;10371416;28;20033;-72
2023/08/21 03:54:14;;;;;;;0.08;0.08;;;;;;;-145.06;100.00;39719.47;10377544;28;20018;-72
2023/08/21 03:59:14;;;;;;;0.10;0.10;;;;;;;-145.06;100.00;39721.47;10367811;28;20022;-72
2023/08/21 04:04:14;;;;;;;0.10;0.10;;;;;;;-145.06;100.00;39727.53;10353621;28;20088;-73
2023/08/21 04:09:15;;;;;;;0.10;0.10;;;;;;;-145.06;100.00;39743.69;10390624;28;20474;-72
2023/08/21 04:14:15;;;;;;;0.10;0.10;;;;;;;-145.06;100.00;39743.69;10389904;28;20048;-73
2023/08/21 04:19:15;;;;;;;0.10;0.10;;;;;;;-145.06;100.00;39767.88;10384866;28;20033;-72
2023/08/21 04:24:15;;;;;;;0.10;0.10;;;;;;;-145.06;100.00;39707.34;10383524;28;20372;-72
2023/08/21 04:29:16;;;;;;;0.10;0.10;;;;;;;-145.06;100.00;39610.50;10366051;28;20072;-72
2023/08/21 04:34:18;;;;;;;0.10;0.10;;;;;;;-145.06;100.00;39554.00;10383333;28;20018;-70
2023/08/21 04:39:18;;;;;;;0.00;0.00;;;;;;;-145.06;100.00;39545.94;10390749;28;20022;-71
2023/08/21 04:44:18;;;;;;;0.00;0.00;;;;;;;-145.06;100.00;39465.22;10385948;28;20390;-70
2023/08/21 04:49:19;;;;;;;0.08;0.08;;;;;;;-145.06;100.00;39362.31;10385280;28;20498;-70
2023/08/21 04:54:19;;;;;;;0.00;0.00;;;;;;;-145.06;100.00;39217.03;10390880;28;20021;-70
2023/08/21 04:59:19;;;;;;;0.00;0.00;;;;;;;-145.06;100.00;39037.47;10393217;28;20017;-71
2023/08/21 05:04:19;;;;;;;0.00;0.00;;;;;;;-145.06;100.00;38932.56;10374912;28;20474;-71
2023/08/21 05:09:20;;;;;;;0.10;0.10;;;;;;;-145.06;100.00;38738.88;10378874;28;20028;-71
2023/08/21 05:14:20;;;;;;;0.00;0.00;;;;;;;-145.06;99.43;38563.38;10388209;28;20021;-71
2023/08/21 05:19:21;;;;;;;0.10;0.10;;;;;;;-145.06;91.55;38369.72;10390350;28;20123;-71
2023/08/21 05:24:21;;;;;;;0.03;0.03;;;;;;;-145.06;87.16;38095.38;10395331;28;20378;-71
2023/08/21 05:29:22;;;;;;;0.10;0.10;;;;;;;-145.06;81.06;37863.44;10385905;28;20487;-71
2023/08/21 05:34:25;;;;;;;0.10;0.10;;;;;;;-145.06;74.78;37683.94;10400564;28;20033;-71
2023/08/21 05:39:25;;;;;;;0.00;0.00;;;;;;;-145.06;70.50;37558.88;10392659;28;20225;-71
2023/08/21 05:44:25;;;;;;;0.10;0.10;;;;;;;-145.06;67.90;37405.63;10378553;28;20038;-71
2023/08/21 05:49:26;;;;;;;0.10;0.10;;;;;;;-145.06;65.99;37262.44;10398696;28;20096;-71
2023/08/21 05:54:26;;;;;;;0.10;0.10;;;;;;;-145.06;63.27;37115.22;10390781;28;20018;-71
2023/08/21 05:59:29;;;;;;;0.10;0.10;;;;;;;-145.06;61.68;36966.00;10378783;28;20026;-71
2023/08/21 06:04:29;;;;;;;0.10;0.10;;;;;;;-145.06;59.49;36776.44;10369261;28;20482;-71
2023/08/21 06:09:31;;;;;;;0.10;0.10;;;;;;;-145.06;58.80;36568.78;10392153;28;20029;-70
2023/08/21 06:14:31;;;;;;;0.05;0.05;;;;;;;-145.06;57.14;36336.91;10386425;28;20163;-70
2023/08/21 06:19:32;;;;;;;0.10;0.10;;;;;;;-145.06;54.24;36151.41;10385871;28;20125;-70
2023/08/21 06:24:32;;;;;;;;;;;;;;;-145.06;51.16;35982.06;10377153;28;20068;-71
2023/08/21 06:29:33;;;;;;;0.10;0.10;;;;;;;-145.06;49.71;36014.34;10378618;28;20023;-71
2023/08/21 06:34:33;;;;;;;0.10;0.10;;;;;;;-145.06;51.32;35919.59;10389904;28;20024;-70
2023/08/21 06:39:34;;;;;;;0.10;0.10;;;;;;;-145.06;49.19;35766.38;10377244;28;20041;-71
2023/08/21 06:44:34;;;;;;;0.10;0.10;;;;;;;-145.06;47.62;35724.03;10383863;28;20109;-70
2023/08/21 06:49:34;;;;;;;0.10;0.10;;;;;;;-145.06;47.61;35550.69;10381064;28;20036;-69
2023/08/21 06:54:35;;;;;;;0.10;0.10;;;;;;;-145.06;48.72;35397.47;10388550;28;20497;-70
2023/08/21 06:59:36;;;;;;;0.10;0.10;;;;;;;-145.06;46.89;35373.28;10381312;28;20029;-69
2023/08/21 07:04:36;;;;;;;0.10;0.10;;;;;;;-145.06;46.53;35264.44;10370244;28;20034;-70
2023/08/21 07:09:36;;;;;;;0.10;0.10;;;;;;;-145.06;46.81;35349.09;10372996;28;20049;-69
2023/08/21 07:14:36;;;;;;;0.10;0.10;;;;;;;-145.06;45.82;35379.34;10387680;28;20040;-69
2023/08/21 07:19:37;;;;;;;0.10;0.10;;;;;;;-145.06;45.57;35310.81;10378700;28;20389;-69
2023/08/21 07:24:37;;;;;;;0.10;0.10;;;;;;;-145.06;46.82;35316.84;10379122;28;20394;-69
2023/08/21 07:29:38;;;;;;;0.10;0.10;;;;;;;-145.06;45.43;35143.53;10379826;28;20242;-70
2023/08/21 07:34:39;;;;;;;0.10;0.10;;;;;;;-145.06;44.04;35226.16;10394240;28;20029;-70
2023/08/21 07:39:39;;;;;;;0.10;0.10;;;;;;;-145.06;44.20;35232.19;10374269;28;21423;-70
2023/08/21 07:44:40;;;;;;;0.10;0.10;;;;;;;-145.06;43.32;35187.84;10383597;28;20059;-70
2023/08/21 07:49:40;;;;;;;0.10;0.10;;;;;;;-145.06;44.04;35328.94;10393900;28;20026;-69
2023/08/21 07:54:40;;;;;;;;;;;;;;;-145.06;43.18;35399.50;10394687;28;20389;-69
2023/08/21 07:59:41;;;;;;;0.10;0.10;;;;;;;-145.06;43.51;35713.97;10386857;28;20003;-70
2023/08/21 08:04:43;;;;;;;0.10;0.10;;;;;;;-145.06;42.92;35645.41;10394212;28;20467;-69
2023/08/21 08:09:43;;;;;;;0.10;0.10;;;;;;;-145.06;43.65;35631.31;10390102;28;20067;-69
2023/08/21 08:14:43;;;;;;;0.10;0.10;;;;;;;-145.06;43.11;35669.63;10377551;28;20030;-70
2023/08/21 08:19:44;;;;;;;0.10;0.10;;;;;;;-145.06;43.45;35816.78;10385784;28;20021;-70
2023/08/21 08:24:44;;;;;;;0.10;0.10;;;;;;;-145.06;44.70;35804.66;10395509;28;20029;-70
2023/08/21 08:29:44;;;;;;;0.10;0.10;;;;;;;-145.06;42.21;35988.13;10373054;28;20022;-70
2023/08/21 08:34:46;;;;;;;0.10;0.10;;;;;;;-145.06;43.31;36101.03;10402234;28;20436;-70
2023/08/21 08:39:47;;;;;;;0.10;0.10;;;;;;;-145.06;44.15;35984.09;10370849;28;20029;-69
2023/08/21 08:44:49;;;;;;;0.10;0.10;;;;;;;-145.06;43.86;36056.66;10387649;28;20028;-69
2023/08/21 08:49:50;;;;;;;0.10;0.10;;;;;;;-145.06;43.41;35969.97;10403335;28;20057;-69
2023/08/21 08:54:50;;;;;;;0.10;0.10;;;;;;;-145.06;42.12;35911.50;10395686;28;20492;-70
2023/08/21 08:59:51;;;;;;;;;;;;;;;-145.06;42.95;36461.91;10375533;28;20105;-70
2023/08/21 09:04:51;;;;;;;0.05;0.05;;;;;;;-145.06;43.25;36490.13;10388667;28;19914;-70
2023/08/21 09:09:52;;;;;;;0.10;0.10;;;;;;;-145.06;45.62;36594.97;10397351;28;20026;-69
2023/08/21 09:14:53;;;;;;;0.10;0.10;;;;;;;-145.06;44.09;36532.47;10383117;28;20025;-70
2023/08/21 09:19:53;;;;;;;0.00;0.00;;;;;;;-145.06;44.11;36607.06;10403478;28;20052;-69
2023/08/21 09:25:07;;;;;;;0.08;0.08;;;;;;;-145.06;43.96;36522.41;10394134;28;20038;-69
2023/08/21 09:30:14;;;;;;;0.00;0.00;;;;;;;-145.06;42.78;36651.44;10386754;28;20348;-69
2023/08/21 09:35:14;;;;;;;0.10;0.10;;;;;;;-145.06;45.41;36653.44;10384974;28;20530;-69
2023/08/21 09:40:16;;;;;;;0.10;0.10;;;;;;;-145.06;45.14;36659.50;10381860;28;20137;-69
2023/08/21 09:45:23;;;;;;;0.10;0.10;;;;;;;-145.06;46.24;36730.06;10380905;28;20022;-70
2023/08/21 09:50:24;;;;;;;0.10;0.10;;;;;;;-145.06;49.63;36687.72;10380597;28;20056;-70
2023/08/21 09:55:31;;;;;;;0.10;0.10;;;;;;;-145.06;45.82;36824.84;10384464;28;20510;-70
2023/08/21 10:00:37;;;;;;;0.10;0.10;;;;;;;-145.06;48.03;36949.88;10369510;28;20506;-70
2023/08/21 10:05:39;;;;;;;0.00;0.00;;;;;;;-145.06;50.13;36982.13;10388296;28;20017;-71
2023/08/21 10:10:39;;;;;;;0.10;0.10;;;;;;;-145.06;49.46;37050.69;10393182;28;20119;-70
2023/08/21 10:15:41;;;;;;;0.10;0.10;;;;;;;-145.06;48.67;36966.00;10379854;28;20160;-70
2023/08/21 10:20:42;;;;;;;0.10;0.10;;;;;;;-145.06;51.04;37000.28;10398895;28;20025;-70
2023/08/21 10:25:42;;;;;;;0.10;0.10;;;;;;;-145.06;46.92;37163.63;10400074;28;20052;-70
2023/08/21 10:30:42;;;;;;;0.10;0.10;;;;;;;-145.06;52.83;37195.88;10369392;28;20276;-70
2023/08/21 10:35:43;;;;;;;0.10;0.10;;;;;;;-145.06;51.63;37127.31;10399379;28;20013;-70
2023/08/21 10:41:06;;;;;;;0.10;0.10;;;;;;;-145.06;53.12;37214.03;10380893;28;20025;-71
2023/08/21 10:46:08;;;;;;;0.00;0.00;;;;;;;-145.06;47.93;37252.34;10386133;28;20030;-71
2023/08/21 10:51:09;;;;;;;0.10;0.10;;;;;;;-145.06;51.84;37207.97;10391144;28;20017;-71
2023/08/21 10:56:09;;;;;;;0.10;0.10;;;;;;;-145.06;49.55;37205.97;10397586;28;20037;-70
2023/08/21 11:01:12;;;;;;;0.00;0.00;;;;;;;-145.06;47.18;37246.28;10377351;28;20029;-71
2023/08/21 11:06:12;;;;;;;0.00;0.00;;;;;;;-145.06;50.33;37258.41;10375804;28;20443;-71
2023/08/21 11:11:13;;;;;;;0.10;0.10;;;;;;;-145.06;45.84;37250.34;10378590;28;20057;-71
2023/08/21 11:16:13;;;;;;;0.10;0.10;;;;;;;-145.06;46.86;37401.59;10388903;28;20029;-71
2023/08/21 11:21:13;;;;;;;0.10;0.10;;;;;;;-145.06;51.06;37353.19;10400098;28;20407;-71
2023/08/21 11:26:14;;;;;;;0.00;0.00;;;;;;;-145.06;45.55;37472.16;10393241;28;20026;-71
2023/08/21 11:31:15;;;;;;;0.10;0.10;;;;;;;-145.06;46.60;37585.09;10375630;28;20096;-71
2023/08/21 11:36:16;;;;;;;0.10;0.10;;;;;;;-145.06;46.89;37772.66;10389064;28;20022;-71
2023/08/21 11:41:16;;;;;;;0.10;0.10;;;;;;;-145.06;48.46;37813.00;10346966;28;20409;-71
2023/08/21 11:46:18;;;;;;;0.10;0.10;;;;;;;-145.06;49.24;37891.66;10342885;28;20042;-72
2023/08/21 11:51:18;;;;;;;0.10;0.10;;;;;;;-145.06;49.03;37849.31;10338125;28;20091;-72
2023/08/21 11:56:18;;;;;;;0.10;0.10;;;;;;;-145.06;52.07;37752.50;10337492;28;20034;-71
2023/08/21 12:01:20;;;;;;;0.10;0.10;;;;;;;-145.06;47.43;37762.59;10344158;28;20383;-69
2023/08/21 12:06:21;;;;;;;0.00;0.00;;;;;;;-145.06;48.54;37845.28;10337080;28;20026;-67
2023/08/21 12:11:22;;;;;;;0.10;0.10;;;;;;;-145.06;46.33;37891.66;10329643;28;20485;-67
2023/08/21 12:16:22;;;;;;;0.10;0.10;;;;;;;-145.06;46.93;37875.53;10341358;28;20026;-67
2023/08/21 12:21:23;;;;;;;0.10;0.10;;;;;;;-145.06;46.53;37893.69;10335682;28;20034;-67
2023/08/21 12:26:23;;;;;;;0.10;0.10;;;;;;;-145.06;45.47;37982.44;10337712;28;20030;-67
2023/08/21 12:31:23;;;;;;;0.00;0.00;;;;;;;-145.06;47.02;37982.44;10337472;28;20022;-67
2023/08/21 12:36:24;;;;;;;0.10;0.10;;;;;;;-145.06;47.42;38002.59;10341943;28;20025;-67
2023/08/21 12:41:24;;;;;;;0.10;0.10;;;;;;;-145.06;48.10;37990.50;10342456;28;20021;-67
2023/08/21 12:46:26;;;;;;;0.00;0.00;;;;;;;-145.06;46.74;38073.19;10343246;28;20038;-67
2023/08/21 12:51:27;;;;;;;0.10;0.10;;;;;;;-145.06;47.78;38079.25;10341033;28;20024;-67
2023/08/21 12:56:28;;;;;;;0.00;0.00;;;;;;;-145.06;47.08;38091.34;10338433;28;20084;-67
2023/08/21 13:01:29;;;;;;;0.00;0.00;;;;;;;-145.06;47.23;38139.75;10341062;28;20084;-67
2023/08/21 13:06:29;;;;;;;0.00;0.00;;;;;;;-145.06;47.99;38202.28;10344016;28;20203;-67
2023/08/21 13:11:30;;;;;;;0.00;0.00;;;;;;;-145.06;48.31;38135.72;10340936;28;20023;-67
2023/08/21 13:16:30;;;;;;;0.10;0.10;;;;;;;-145.06;48.53;38107.50;10336544;28;20022;-66
2023/08/21 13:21:30;;;;;;;0.10;0.10;;;;;;;-145.06;50.23;38182.13;10340828;28;20034;-66
2023/08/21 13:26:31;;;;;;;0.08;0.08;;;;;;;-145.06;50.25;38105.47;10339253;28;20234;-67
2023/08/21 13:31:31;;;;;;;0.00;0.00;;;;;;;-145.06;48.04;38145.81;10340240;28;20013;-67
2023/08/21 13:36:32;;;;;;;0.10;0.10;;;;;;;-145.06;46.74;38176.06;10337430;28;20259;-68
2023/08/21 13:41:32;;;;;;;0.00;0.00;;;;;;;-145.06;49.86;38168.00;10345979;28;20031;-69
2023/08/21 13:46:36;;;;;;;0.00;0.00;;;;;;;-145.06;47.97;38139.75;10384060;28;20402;-68
2023/08/21 13:51:36;;;;;;;0.00;0.00;;;;;;;-145.06;47.62;38109.50;10393912;28;20529;-67
2023/08/21 13:56:36;;;;;;;0.10;0.10;;;;;;;-145.06;50.60;38147.84;10397026;28;20080;-68
2023/08/21 14:01:37;;;;;;;0.10;0.10;;;;;;;-145.06;48.92;38137.75;10385167;28;20033;-67
2023/08/21 14:06:37;;;;;;;0.00;0.00;;;;;;;-145.06;49.04;38168.00;10387827;28;20022;-67
2023/08/21 14:11:37;;;;;;;0.00;0.00;;;;;;;-145.06;48.07;38163.97;10371044;28;20057;-67
2023/08/21 14:16:37;;;;;;;0.10;0.10;;;;;;;-145.06;47.26;38157.91;10380859;28;20105;-67
2023/08/21 14:21:38;;;;;;;0.08;0.08;;;;;;;-145.06;47.41;38210.38;10373377;28;20030;-67
2023/08/21 14:26:39;;;;;;;0.00;0.00;;;;;;;-145.06;47.46;38200.28;10379601;28;20021;-68
2023/08/21 14:31:40;;;;;;;0.00;0.00;;;;;;;-145.06;47.53;38216.41;10394904;28;20144;-67
2023/08/21 14:36:40;;;;;;;0.10;0.10;;;;;;;-145.06;47.94;38188.19;10392491;28;20029;-67
2023/08/21 14:41:43;;;;;;;0.10;0.10;;;;;;;-145.06;45.22;38206.31;10381220;28;20037;-67
2023/08/21 14:46:44;;;;;;;0.00;0.00;;;;;;;-145.06;45.51;38297.09;10384274;28;20037;-68
2023/08/21 14:51:44;;;;;;;0.00;0.00;;;;;;;-145.06;46.43;38301.13;10390677;28;20022;-67
2023/08/21 14:56:44;;;;;;;0.00;0.00;;;;;;;-145.06;47.28;38315.25;10394018;28;20037;-67
2023/08/21 15:01:45;;;;;;;0.07;0.07;;;;;;;-145.06;46.93;38355.59;10395375;28;20053;-67
2023/08/21 15:06:45;;;;;;;0.00;0.00;;;;;;;-145.06;48.35;38412.09;10387758;28;20017;-67
2023/08/21 15:11:45;;;;;;;0.10;0.10;;;;;;;-145.06;47.99;38502.84;10394421;22;20019;-90
2023/08/21 15:16:46;;;;;;;0.10;0.10;;;;;;;-145.06;46.92;38510.94;10400381;28;20029;-90
2023/08/21 15:21:46;;;;;;;0.00;0.00;;;;;;;-145.06;46.86;38357.63;10401597;28;20384;-91
2023/08/21 15:26:48;;;;;;;0.00;0.00;;;;;;;-145.06;49.70;38393.94;10379977;28;20054;-89
2023/08/21 15:31:50;;;;;;;0.00;0.00;;;;;;;-145.06;48.60;38521.00;10377500;28;20108;-89
2023/08/21 15:36:51;;;;;;;0.10;0.10;;;;;;;-145.06;48.99;38393.94;10370831;28;20068;-90
2023/08/21 15:41:51;;;;;;;0.00;0.00;;;;;;;-145.06;48.68;38644.06;10368375;28;20025;-91
2023/08/21 15:46:52;;;;;;;0.00;0.00;;;;;;;-145.06;50.69;38617.84;10371501;28;20033;-88
2023/08/21 15:51:52;;;;;;;0.10;0.10;;;;;;;-145.06;50.08;38684.41;10381385;28;20029;-89
2023/08/21 15:56:52;;;;;;;0.10;0.10;;;;;;;-145.06;49.35;38728.78;10367805;28;20022;-90
2023/08/21 16:01:52;;;;;;;0.10;0.10;;;;;;;-145.06;50.88;38623.91;10388388;28;20479;-90
2023/08/21 16:06:53;;;;;;;0.10;0.10;;;;;;;-145.06;50.85;38664.25;10376118;28;20022;-90
2023/08/21 16:11:53;;;;;;;0.00;0.00;;;;;;;-145.06;52.51;38676.34;10374736;28;20611;-90
2023/08/21 16:16:56;;;;;;;0.10;0.10;;;;;;;-145.06;51.83;38744.94;10375566;28;20172;-90
2023/08/21 16:21:56;;;;;;;0.10;0.10;;;;;;;-145.06;52.66;38567.41;10378762;28;20029;-90
2023/08/21 16:26:57;;;;;;;0.00;0.00;;;;;;;-145.06;53.91;38589.59;10377591;28;20451;-89
2023/08/21 16:31:57;;;;;;;0.00;0.00;;;;;;;-145.06;53.34;38769.16;10375826;28;20172;-90
2023/08/21 16:36:57;;;;;;;0.03;0.03;;;;;;;-145.06;52.45;38660.22;10373242;28;20029;-90
2023/08/21 16:41:58;;;;;;;0.00;0.00;;;;;;;-145.06;53.28;38767.13;10372757;28;20108;-92
2023/08/21 16:46:58;;;;;;;0.00;0.00;;;;;;;-145.06;54.41;38722.75;10372432;28;20030;-91
2023/08/21 16:51:58;;;;;;;0.00;0.00;;;;;;;-145.06;53.06;38853.88;10375313;28;20021;-91
2023/08/21 16:56:59;;;;;;;0.00;0.00;;;;;;;-145.06;54.86;38817.56;10380931;28;20014;-92
2023/08/21 17:01:59;;;;;;;0.00;0.00;;;;;;;-145.06;56.45;38870.03;10371304;28;20021;-91
2023/08/21 17:06:59;;;;;;;0.00;0.00;;;;;;;-145.06;57.79;38918.44;10379192;28;20033;-91
2023/08/21 17:11:59;;;;;;;0.00;0.00;;;;;;;-145.06;59.38;38880.09;10374967;28;20088;-90
2023/08/21 17:17:00;;;;;;;0.00;0.00;;;;;;;-145.06;59.52;38878.09;10371126;28;20041;-89
2023/08/21 17:22:01;;;;;;;0.00;0.00;;;;;;;-145.06;60.15;38781.25;10385933;28;20036;-90
2023/08/21 17:27:02;;;;;;;0.00;0.00;;;;;;;-145.06;59.64;39025.38;10373846;28;20033;-91
2023/08/21 17:32:11;;;;;;;0.00;0.00;;;;;;;-145.06;61.71;38978.97;10375030;28;20022;-91
2023/08/21 17:37:11;;;;;;;0.00;0.00;;;;;;;-145.06;61.21;38829.66;10371303;28;20514;-90
2023/08/21 17:42:11;;;;;;;0.10;0.10;;;;;;;-145.06;62.04;39011.25;10371789;28;20017;-91
2023/08/21 17:48:12;;;;;;;0.10;0.10;;;;;;;-145.06;63.23;39083.88;10375954;28;20260;-91
2023/08/21 17:53:15;;;;;;;0.00;0.00;;;;;;;-145.06;64.07;38978.97;10312989;28;20446;-90
2023/08/21 17:58:15;;;;;;;0.00;0.00;;;;;;;-145.06;70.35;39069.75;10383897;28;20032;-91
2023/08/21 18:03:16;;;;;;;0.00;0.00;;;;;;;-145.06;73.20;39098.00;10375719;28;20033;-91
2023/08/21 18:08:17;;;;;;;0.00;0.00;;;;;;;-145.06;76.21;39142.38;10375475;28;20343;-90
2023/08/21 18:13:18;;;;;;;0.00;0.00;;;;;;;-145.06;77.39;39180.72;10371680;28;20128;-91
2023/08/21 18:18:18;;;;;;;0.10;0.10;;;;;;;-145.06;83.02;39043.53;10386202;28;20096;-91
2023/08/21 18:23:24;;;;;;;0.10;0.10;;;;;;;-145.06;83.97;39332.03;10373170;28;20108;-91
2023/08/21 18:28:25;;;;;;;0.00;0.00;;;;;;;-145.06;88.11;39192.81;10384706;28;20057;-90
2023/08/21 18:33:26;;;;;;;0.00;0.00;;;;;;;-145.06;91.29;39208.97;10376434;28;20022;-91
2023/08/21 18:38:27;;;;;;;0.00;0.00;;;;;;;-145.06;94.42;39346.16;10382299;28;20021;-90
2023/08/21 18:43:28;;;;;;;0.00;0.00;;;;;;;-145.06;94.09;39299.75;10360274;28;20029;-90
2023/08/21 18:48:28;;;;;;;0.10;0.10;;;;;;;-145.06;97.68;39578.22;10370456;28;20022;-91
2023/08/21 18:53:30;;;;;;;0.10;0.10;;;;;;;-145.06;98.58;39481.34;10367596;28;20464;-91
2023/08/21 18:58:31;;;;;;;0.10;0.10;;;;;;;-145.06;98.47;39547.94;10383457;28;20025;-92
2023/08/21 19:03:31;;;;;;;0.10;0.10;;;;;;;-145.06;100.00;39517.69;10369288;28;20030;-91
2023/08/21 19:08:32;;;;;;;0.00;0.00;;;;;;;-145.06;100.00;39545.94;10374216;28;20605;-89
2023/08/21 19:13:33;;;;;;;0.10;0.10;;;;;;;-145.06;100.00;39644.81;10371229;28;20075;-91
2023/08/21 19:18:33;;;;;;;0.10;0.10;;;;;;;-145.06;100.00;39604.44;10370168;28;20025;-89
2023/08/21 19:23:34;;;;;;;0.00;0.00;;;;;;;-145.06;100.00;39636.72;10383106;28;20021;-90
2023/08/21 19:28:34;;;;;;;0.10;0.10;;;;;;;-145.06;100.00;39664.97;10375558;28;20518;-90
2023/08/21 19:33:35;;;;;;;0.10;0.10;;;;;;;-145.06;100.00;39499.50;10368881;28;20105;-88
2023/08/21 19:38:36;;;;;;;0.10;0.10;;;;;;;-145.06;100.00;39685.16;10377453;28;20084;-90
2023/08/21 19:43:36;;;;;;;0.00;0.00;;;;;;;-145.06;100.00;39711.38;10371572;28;20113;-90
2023/08/21 19:48:37;;;;;;;0.00;0.00;;;;;;;-145.06;100.00;39551.97;10371847;28;20038;-90
2023/08/21 19:53:37;;;;;;;0.00;0.00;;;;;;;-145.06;100.00;39715.44;10373036;28;20392;-91
2023/08/21 19:58:37;;;;;;;0.10;0.10;;;;;;;-145.06;100.00;39769.91;10367183;28;20056;-91
2023/08/21 20:03:38;;;;;;;0.00;0.00;;;;;;;-145.06;100.00;39761.84;10369681;28;20737;-91
2023/08/21 20:08:38;;;;;;;0.10;0.10;;;;;;;-145.06;100.00;39767.88;10369981;28;20038;-90
2023/08/21 20:13:39;;;;;;;0.10;0.10;;;;;;;-145.06;100.00;39780.00;10367851;28;20029;-91
2023/08/21 20:18:39;;;;;;;0.10;0.10;;;;;;;-145.06;100.00;39580.22;10381498;28;20026;-90
2023/08/21 20:23:40;;;;;;;0.10;0.10;;;;;;;-145.06;100.00;39564.09;10372991;28;20462;-91
2023/08/21 20:28:43;;;;;;;0.00;0.00;;;;;;;-145.06;100.00;39866.78;10375539;28;20041;-92
2023/08/21 20:33:43;;;;;;;0.00;0.00;;;;;;;-145.06;100.00;39840.53;10382731;28;20014;-91
2023/08/21 20:38:44;;;;;;;0.07;0.07;;;;;;;-145.06;100.00;39711.38;10370926;28;20053;-91
2023/08/21 20:43:44;;;;;;;0.10;0.10;;;;;;;-145.06;100.00;39733.59;10367367;28;20387;-91
2023/08/21 20:48:45;;;;;;;0.10;0.10;;;;;;;-145.06;100.00;39828.44;10374031;28;20569;-91
2023/08/21 20:53:45;;;;;;;0.10;0.10;;;;;;;-145.06;100.00;39771.94;10366943;28;20026;-91
2023/08/21 20:58:46;;;;;;;0.10;0.10;;;;;;;-145.06;100.00;39899.06;10372774;28;20116;-91
2023/08/21 21:03:46;;;;;;;0.10;0.10;;;;;;;-145.06;100.00;39854.66;10377259;28;20041;-91
2023/08/21 21:08:47;;;;;;;0.10;0.10;;;;;;;-145.06;100.00;39927.31;10372879;28;20017;-89
2023/08/21 21:13:47;;;;;;;0.10;0.10;;;;;;;-145.06;100.00;39850.63;10376072;28;20060;-90
2023/08/21 21:18:47;;;;;;;0.10;0.10;;;;;;;-145.06;100.00;39911.16;10371740;28;20096;-91
2023/08/21 21:23:47;;;;;;;0.10;0.10;;;;;;;-145.06;100.00;39866.78;10371508;28;20075;-91
2023/08/21 21:28:48;;;;;;;0.10;0.10;;;;;;;-145.06;100.00;39923.28;10370620;28;20619;-90
2023/08/21 21:33:52;;;;;;;0.10;0.10;;;;;;;-145.06;100.00;39911.16;10368458;28;20391;-91
2023/08/21 21:38:53;;;;;;;0.10;0.10;;;;;;;-145.06;100.00;39905.13;10368677;28;20052;-91
2023/08/21 21:43:53;;;;;;;0.10;0.10;;;;;;;-145.06;100.00;39761.84;10367933;28;20037;-91
2023/08/21 21:48:53;;;;;;;0.10;0.10;;;;;;;-145.06;100.00;39949.50;10377808;28;20125;-90
2023/08/21 21:53:54;;;;;;;0.10;0.10;;;;;;;-145.06;100.00;39899.06;10370110;28;20368;-90
2023/08/21 21:58:54;;;;;;;0.10;0.10;;;;;;;-145.06;100.00;39739.63;10385174;28;20055;-90
2023/08/21 22:03:54;;;;;;;0.10;0.10;;;;;;;-145.06;100.00;39933.38;10391661;28;20112;-89
2023/08/21 22:08:55;;;;;;;0.10;0.10;;;;;;;-145.06;100.00;40004.00;10374667;28;20371;-90
2023/08/21 22:13:56;;;;;;;0.10;0.10;;;;;;;-145.06;100.00;39947.50;10376755;28;20071;-90
2023/08/21 22:18:56;;;;;;;0.10;0.10;;;;;;;-145.06;100.00;39943.44;10381254;28;20013;-90
2023/08/21 22:23:56;;;;;;;0.10;0.10;;;;;;;-145.06;100.00;39915.19;10378305;28;20404;-90
2023/08/21 22:28:57;;;;;;;0.00;0.00;;;;;;;-145.06;100.00;39777.97;10372956;28;20471;-90
2023/08/21 22:33:57;;;;;;;0.00;0.00;;;;;;;-145.06;100.00;39852.66;10372386;28;20026;-90
2023/08/21 22:38:57;;;;;;;0.10;0.10;;;;;;;-145.06;100.00;39943.44;10371528;28;20565;-91
2023/08/21 22:43:58;;;;;;;0.10;0.10;;;;;;;-145.06;100.00;39947.50;10367211;28;20057;-90